sensor_id;sensor_type;location;lat;lon;timestamp;P1;durP1;ratioP1;P2;durP2;ratioP2
47309;SDS011;33046;52.270;6.832;2023-07-02T00:01:27;3.75;;;1.50;;
47309;SDS011;33046;52.270;6.832;2023-07-02T00:03:34;3.08;;;1.00;;
47309;SDS011;33046;52.270;6.832;2023-07-02T00:05:41;3.55;;;1.35;;
47309;SDS011;33046;52.270;6.832;2023-07-02T00:07:48;3.58;;;1.00;;
47309;SDS011;33046;52.270;6.832;2023-07-02T00:09:56;2.10;;;0.90;;
47309;SDS011;33046;52.270;6.832;2023-07-02T00:12:03;2.83;;;1.17;;
47309;SDS011;33046;52.270;6.832;2023-07-02T00:14:10;2.92;;;0.95;;
47309;SDS011;33046;52.270;6.832;2023-07-02T00:16:17;5.00;;;1.27;;
47309;SDS011;33046;52.270;6.832;2023-07-02T00:18:24;4.15;;;1.30;;
47309;SDS011;33046;52.270;6.832;2023-07-02T00:20:31;5.05;;;1.67;;
47309;SDS011;33046;52.270;6.832;2023-07-02T00:22:39;2.08;;;0.90;;
47309;SDS011;33046;52.270;6.832;2023-07-02T00:24:46;1.90;;;0.98;;
47309;SDS011;33046;52.270;6.832;2023-07-02T00:26:54;4.70;;;1.33;;
47309;SDS011;33046;52.270;6.832;2023-07-02T00:29:01;2.95;;;1.00;;
47309;SDS011;33046;52.270;6.832;2023-07-02T00:31:08;1.60;;;1.15;;
47309;SDS011;33046;52.270;6.832;2023-07-02T00:33:15;4.35;;;1.00;;
47309;SDS011;33046;52.270;6.832;2023-07-02T00:35:22;3.33;;;1.15;;
47309;SDS011;33046;52.270;6.832;2023-07-02T00:37:29;2.13;;;1.00;;
47309;SDS011;33046;52.270;6.832;2023-07-02T00:39:36;3.33;;;1.38;;
47309;SDS011;33046;52.270;6.832;2023-07-02T00:41:43;1.13;;;0.98;;
47309;SDS011;33046;52.270;6.832;2023-07-02T00:43:51;1.98;;;1.08;;
47309;SDS011;33046;52.270;6.832;2023-07-02T00:45:58;2.75;;;1.23;;
47309;SDS011;33046;52.270;6.832;2023-07-02T00:48:05;2.60;;;1.20;;
47309;SDS011;33046;52.270;6.832;2023-07-02T00:50:12;2.97;;;1.25;;
47309;SDS011;33046;52.270;6.832;2023-07-02T00:52:19;3.92;;;1.52;;
47309;SDS011;33046;52.270;6.832;2023-07-02T00:54:27;5.13;;;1.27;;
47309;SDS011;33046;52.270;6.832;2023-07-02T00:56:34;7.57;;;2.25;;
47309;SDS011;33046;52.270;6.832;2023-07-02T00:58:42;3.22;;;1.70;;
47309;SDS011;33046;52.270;6.832;2023-07-02T01:00:53;7.68;;;1.90;;
47309;SDS011;33046;52.270;6.832;2023-07-02T01:03:00;5.80;;;2.53;;
47309;SDS011;33046;52.270;6.832;2023-07-02T01:05:09;2.55;;;1.73;;
47309;SDS011;33046;52.270;6.832;2023-07-02T01:07:20;3.58;;;1.60;;
47309;SDS011;33046;52.270;6.832;2023-07-02T01:09:27;5.18;;;2.17;;
47309;SDS011;33046;52.270;6.832;2023-07-02T01:11:35;3.00;;;1.90;;
47309;SDS011;33046;52.270;6.832;2023-07-02T01:13:45;4.22;;;1.50;;
47309;SDS011;33046;52.270;6.832;2023-07-02T01:15:53;6.30;;;2.42;;
47309;SDS011;33046;52.270;6.832;2023-07-02T01:18:01;4.60;;;2.15;;
47309;SDS011;33046;52.270;6.832;2023-07-02T01:20:11;5.10;;;1.85;;
47309;SDS011;33046;52.270;6.832;2023-07-02T01:22:19;5.25;;;1.80;;
47309;SDS011;33046;52.270;6.832;2023-07-02T01:24:26;3.40;;;1.60;;
47309;SDS011;33046;52.270;6.832;2023-07-02T01:26:34;3.40;;;1.50;;
47309;SDS011;33046;52.270;6.832;2023-07-02T01:28:41;3.05;;;1.90;;
47309;SDS011;33046;52.270;6.832;2023-07-02T01:30:48;3.85;;;1.95;;
47309;SDS011;33046;52.270;6.832;2023-07-02T01:32:55;5.57;;;1.92;;
47309;SDS011;33046;52.270;6.832;2023-07-02T01:35:02;2.75;;;1.52;;
47309;SDS011;33046;52.270;6.832;2023-07-02T01:37:10;4.25;;;1.70;;
47309;SDS011;33046;52.270;6.832;2023-07-02T01:39:17;4.57;;;2.03;;
47309;SDS011;33046;52.270;6.832;2023-07-02T01:41:24;3.42;;;1.92;;
47309;SDS011;33046;52.270;6.832;2023-07-02T01:43:31;3.42;;;2.13;;
47309;SDS011;33046;52.270;6.832;2023-07-02T01:45:38;2.83;;;1.85;;
47309;SDS011;33046;52.270;6.832;2023-07-02T01:47:45;3.85;;;2.15;;
47309;SDS011;33046;52.270;6.832;2023-07-02T01:49:51;4.57;;;2.75;;
47309;SDS011;33046;52.270;6.832;2023-07-02T01:51:58;5.13;;;2.60;;
47309;SDS011;33046;52.270;6.832;2023-07-02T01:54:08;5.28;;;2.80;;
47309;SDS011;33046;52.270;6.832;2023-07-02T01:56:15;6.00;;;2.80;;
47309;SDS011;33046;52.270;6.832;2023-07-02T01:58:23;7.05;;;2.92;;
47309;SDS011;33046;52.270;6.832;2023-07-02T02:00:30;5.00;;;2.45;;
47309;SDS011;33046;52.270;6.832;2023-07-02T02:02:37;6.88;;;2.60;;
47309;SDS011;33046;52.270;6.832;2023-07-02T02:04:44;7.50;;;3.22;;
47309;SDS011;33046;52.270;6.832;2023-07-02T02:06:51;5.60;;;2.20;;
47309;SDS011;33046;52.270;6.832;2023-07-02T02:08:57;7.65;;;3.20;;
47309;SDS011;33046;52.270;6.832;2023-07-02T02:11:06;7.40;;;3.45;;
47309;SDS011;33046;52.270;6.832;2023-07-02T02:13:13;9.32;;;3.15;;
47309;SDS011;33046;52.270;6.832;2023-07-02T02:15:19;6.45;;;2.90;;
47309;SDS011;33046;52.270;6.832;2023-07-02T02:17:26;6.10;;;3.78;;
47309;SDS011;33046;52.270;6.832;2023-07-02T02:19:33;8.45;;;4.18;;
47309;SDS011;33046;52.270;6.832;2023-07-02T02:21:40;7.20;;;3.17;;
47309;SDS011;33046;52.270;6.832;2023-07-02T02:23:48;9.25;;;3.50;;
47309;SDS011;33046;52.270;6.832;2023-07-02T02:25:55;6.68;;;3.17;;
47309;SDS011;33046;52.270;6.832;2023-07-02T02:28:04;6.63;;;2.88;;
47309;SDS011;33046;52.270;6.832;2023-07-02T02:30:11;6.57;;;3.13;;
47309;SDS011;33046;52.270;6.832;2023-07-02T02:32:18;6.57;;;3.33;;
47309;SDS011;33046;52.270;6.832;2023-07-02T02:34:26;5.38;;;3.00;;
47309;SDS011;33046;52.270;6.832;2023-07-02T02:36:33;8.93;;;3.58;;
47309;SDS011;33046;52.270;6.832;2023-07-02T02:38:40;6.85;;;3.67;;
47309;SDS011;33046;52.270;6.832;2023-07-02T02:40:47;5.35;;;3.60;;
47309;SDS011;33046;52.270;6.832;2023-07-02T02:42:57;11.40;;;4.55;;
47309;SDS011;33046;52.270;6.832;2023-07-02T02:45:06;10.93;;;4.10;;
47309;SDS011;33046;52.270;6.832;2023-07-02T02:47:14;7.22;;;3.85;;
47309;SDS011;33046;52.270;6.832;2023-07-02T02:49:21;9.73;;;4.47;;
47309;SDS011;33046;52.270;6.832;2023-07-02T02:51:28;5.93;;;3.13;;
47309;SDS011;33046;52.270;6.832;2023-07-02T02:53:35;8.93;;;4.28;;
47309;SDS011;33046;52.270;6.832;2023-07-02T02:55:42;7.40;;;3.22;;
47309;SDS011;33046;52.270;6.832;2023-07-02T02:57:49;7.57;;;4.25;;
47309;SDS011;33046;52.270;6.832;2023-07-02T02:59:56;6.93;;;3.83;;
47309;SDS011;33046;52.270;6.832;2023-07-02T03:02:04;7.25;;;4.72;;
47309;SDS011;33046;52.270;6.832;2023-07-02T03:04:11;7.82;;;3.15;;
47309;SDS011;33046;52.270;6.832;2023-07-02T03:06:18;9.55;;;4.15;;
47309;SDS011;33046;52.270;6.832;2023-07-02T03:08:25;6.50;;;3.88;;
47309;SDS011;33046;52.270;6.832;2023-07-02T03:10:32;9.90;;;3.50;;
47309;SDS011;33046;52.270;6.832;2023-07-02T03:12:39;8.13;;;3.63;;
47309;SDS011;33046;52.270;6.832;2023-07-02T03:14:46;7.97;;;4.38;;
47309;SDS011;33046;52.270;6.832;2023-07-02T03:16:53;8.15;;;3.45;;
47309;SDS011;33046;52.270;6.832;2023-07-02T03:19:01;9.77;;;4.15;;
47309;SDS011;33046;52.270;6.832;2023-07-02T03:21:08;8.90;;;4.60;;
47309;SDS011;33046;52.270;6.832;2023-07-02T03:23:15;7.80;;;4.75;;
47309;SDS011;33046;52.270;6.832;2023-07-02T03:25:22;7.68;;;3.78;;
47309;SDS011;33046;52.270;6.832;2023-07-02T03:27:29;8.57;;;3.42;;
47309;SDS011;33046;52.270;6.832;2023-07-02T03:29:36;9.50;;;5.20;;
47309;SDS011;33046;52.270;6.832;2023-07-02T03:31:43;6.47;;;3.50;;
47309;SDS011;33046;52.270;6.832;2023-07-02T03:33:50;11.07;;;3.45;;
47309;SDS011;33046;52.270;6.832;2023-07-02T03:35:58;9.48;;;4.00;;
47309;SDS011;33046;52.270;6.832;2023-07-02T03:38:05;10.02;;;3.95;;
47309;SDS011;33046;52.270;6.832;2023-07-02T03:40:12;9.95;;;4.70;;
47309;SDS011;33046;52.270;6.832;2023-07-02T03:42:19;12.02;;;4.47;;
47309;SDS011;33046;52.270;6.832;2023-07-02T03:44:25;9.75;;;4.50;;
47309;SDS011;33046;52.270;6.832;2023-07-02T03:46:32;12.05;;;4.40;;
47309;SDS011;33046;52.270;6.832;2023-07-02T03:48:39;7.97;;;4.13;;
47309;SDS011;33046;52.270;6.832;2023-07-02T03:50:46;10.60;;;4.30;;
47309;SDS011;33046;52.270;6.832;2023-07-02T03:52:54;9.48;;;3.97;;
47309;SDS011;33046;52.270;6.832;2023-07-02T03:55:01;6.18;;;4.35;;
47309;SDS011;33046;52.270;6.832;2023-07-02T03:57:09;8.88;;;4.18;;
47309;SDS011;33046;52.270;6.832;2023-07-02T03:59:15;9.85;;;4.35;;
47309;SDS011;33046;52.270;6.832;2023-07-02T04:01:22;10.52;;;4.13;;
47309;SDS011;33046;52.270;6.832;2023-07-02T04:03:29;10.48;;;4.50;;
47309;SDS011;33046;52.270;6.832;2023-07-02T04:05:36;8.40;;;4.10;;
47309;SDS011;33046;52.270;6.832;2023-07-02T04:07:43;6.82;;;3.80;;
47309;SDS011;33046;52.270;6.832;2023-07-02T04:09:51;9.10;;;4.25;;
47309;SDS011;33046;52.270;6.832;2023-07-02T04:11:58;11.07;;;4.45;;
47309;SDS011;33046;52.270;6.832;2023-07-02T04:14:05;10.23;;;5.32;;
47309;SDS011;33046;52.270;6.832;2023-07-02T04:16:12;12.52;;;4.53;;
47309;SDS011;33046;52.270;6.832;2023-07-02T04:18:19;8.48;;;4.75;;
47309;SDS011;33046;52.270;6.832;2023-07-02T04:20:26;8.68;;;4.30;;
47309;SDS011;33046;52.270;6.832;2023-07-02T04:22:33;11.10;;;4.78;;
47309;SDS011;33046;52.270;6.832;2023-07-02T04:24:40;11.52;;;4.93;;
47309;SDS011;33046;52.270;6.832;2023-07-02T04:26:48;9.02;;;5.28;;
47309;SDS011;33046;52.270;6.832;2023-07-02T04:28:55;9.65;;;5.00;;
47309;SDS011;33046;52.270;6.832;2023-07-02T04:31:02;11.88;;;4.45;;
47309;SDS011;33046;52.270;6.832;2023-07-02T04:33:08;10.18;;;4.80;;
47309;SDS011;33046;52.270;6.832;2023-07-02T04:35:15;10.32;;;4.30;;
47309;SDS011;33046;52.270;6.832;2023-07-02T04:37:22;12.02;;;5.00;;
47309;SDS011;33046;52.270;6.832;2023-07-02T04:39:29;9.18;;;4.40;;
47309;SDS011;33046;52.270;6.832;2023-07-02T04:41:36;9.20;;;4.43;;
47309;SDS011;33046;52.270;6.832;2023-07-02T04:43:44;8.57;;;4.72;;
47309;SDS011;33046;52.270;6.832;2023-07-02T04:45:51;11.18;;;5.72;;
47309;SDS011;33046;52.270;6.832;2023-07-02T04:47:58;10.70;;;5.18;;
47309;SDS011;33046;52.270;6.832;2023-07-02T04:50:05;13.77;;;5.35;;
47309;SDS011;33046;52.270;6.832;2023-07-02T04:52:13;11.25;;;4.85;;
47309;SDS011;33046;52.270;6.832;2023-07-02T04:54:20;12.68;;;5.75;;
47309;SDS011;33046;52.270;6.832;2023-07-02T04:56:27;10.80;;;6.05;;
47309;SDS011;33046;52.270;6.832;2023-07-02T04:58:34;12.02;;;4.72;;
47309;SDS011;33046;52.270;6.832;2023-07-02T05:00:42;9.75;;;4.50;;
47309;SDS011;33046;52.270;6.832;2023-07-02T05:02:49;12.82;;;5.07;;
47309;SDS011;33046;52.270;6.832;2023-07-02T05:04:56;12.77;;;5.40;;
47309;SDS011;33046;52.270;6.832;2023-07-02T05:07:03;14.55;;;7.13;;
47309;SDS011;33046;52.270;6.832;2023-07-02T05:09:10;15.48;;;6.13;;
47309;SDS011;33046;52.270;6.832;2023-07-02T05:11:17;11.57;;;5.50;;
47309;SDS011;33046;52.270;6.832;2023-07-02T05:13:24;10.82;;;5.43;;
47309;SDS011;33046;52.270;6.832;2023-07-02T05:15:30;12.15;;;5.78;;
47309;SDS011;33046;52.270;6.832;2023-07-02T05:17:39;13.40;;;5.78;;
47309;SDS011;33046;52.270;6.832;2023-07-02T05:19:45;15.95;;;6.47;;
47309;SDS011;33046;52.270;6.832;2023-07-02T05:21:52;18.98;;;6.80;;
47309;SDS011;33046;52.270;6.832;2023-07-02T05:23:59;15.20;;;6.30;;
47309;SDS011;33046;52.270;6.832;2023-07-02T05:26:06;11.38;;;5.63;;
47309;SDS011;33046;52.270;6.832;2023-07-02T05:28:13;10.32;;;5.50;;
47309;SDS011;33046;52.270;6.832;2023-07-02T05:30:20;16.13;;;6.88;;
47309;SDS011;33046;52.270;6.832;2023-07-02T05:32:26;15.30;;;5.35;;
47309;SDS011;33046;52.270;6.832;2023-07-02T05:34:35;11.38;;;5.53;;
47309;SDS011;33046;52.270;6.832;2023-07-02T05:36:41;11.05;;;5.40;;
47309;SDS011;33046;52.270;6.832;2023-07-02T05:38:48;9.23;;;5.35;;
47309;SDS011;33046;52.270;6.832;2023-07-02T05:40:55;10.20;;;5.70;;
47309;SDS011;33046;52.270;6.832;2023-07-02T05:43:02;16.35;;;6.55;;
47309;SDS011;33046;52.270;6.832;2023-07-02T05:45:09;14.65;;;5.80;;
47309;SDS011;33046;52.270;6.832;2023-07-02T05:47:16;14.50;;;6.45;;
47309;SDS011;33046;52.270;6.832;2023-07-02T05:49:23;15.27;;;6.00;;
47309;SDS011;33046;52.270;6.832;2023-07-02T05:51:31;12.43;;;4.65;;
47309;SDS011;33046;52.270;6.832;2023-07-02T05:53:38;13.10;;;5.75;;
47309;SDS011;33046;52.270;6.832;2023-07-02T05:55:45;12.00;;;5.22;;
47309;SDS011;33046;52.270;6.832;2023-07-02T05:57:52;17.45;;;6.00;;
47309;SDS011;33046;52.270;6.832;2023-07-02T05:59:59;15.35;;;5.22;;
47309;SDS011;33046;52.270;6.832;2023-07-02T06:02:06;11.35;;;6.53;;
47309;SDS011;33046;52.270;6.832;2023-07-02T06:04:12;17.50;;;6.63;;
47309;SDS011;33046;52.270;6.832;2023-07-02T06:06:20;16.38;;;5.82;;
47309;SDS011;33046;52.270;6.832;2023-07-02T06:08:29;15.75;;;6.22;;
47309;SDS011;33046;52.270;6.832;2023-07-02T06:10:36;14.05;;;6.15;;
47309;SDS011;33046;52.270;6.832;2023-07-02T06:12:42;11.23;;;5.45;;
47309;SDS011;33046;52.270;6.832;2023-07-02T06:14:49;13.52;;;5.65;;
47309;SDS011;33046;52.270;6.832;2023-07-02T06:16:56;12.30;;;6.45;;
47309;SDS011;33046;52.270;6.832;2023-07-02T06:19:03;17.02;;;6.53;;
47309;SDS011;33046;52.270;6.832;2023-07-02T06:21:10;12.05;;;6.30;;
47309;SDS011;33046;52.270;6.832;2023-07-02T06:23:17;11.95;;;5.57;;
47309;SDS011;33046;52.270;6.832;2023-07-02T06:25:25;12.85;;;6.00;;
47309;SDS011;33046;52.270;6.832;2023-07-02T06:27:32;15.45;;;5.60;;
47309;SDS011;33046;52.270;6.832;2023-07-02T06:29:39;15.95;;;6.22;;
47309;SDS011;33046;52.270;6.832;2023-07-02T06:31:46;13.48;;;6.65;;
47309;SDS011;33046;52.270;6.832;2023-07-02T06:33:53;16.30;;;7.22;;
47309;SDS011;33046;52.270;6.832;2023-07-02T06:36:00;17.63;;;6.65;;
47309;SDS011;33046;52.270;6.832;2023-07-02T06:38:07;13.32;;;5.95;;
47309;SDS011;33046;52.270;6.832;2023-07-02T06:40:14;16.33;;;7.40;;
47309;SDS011;33046;52.270;6.832;2023-07-02T06:42:22;12.30;;;6.18;;
47309;SDS011;33046;52.270;6.832;2023-07-02T06:44:30;14.85;;;6.75;;
47309;SDS011;33046;52.270;6.832;2023-07-02T06:46:36;13.00;;;5.05;;
47309;SDS011;33046;52.270;6.832;2023-07-02T06:48:43;12.88;;;5.65;;
47309;SDS011;33046;52.270;6.832;2023-07-02T06:50:50;13.48;;;6.57;;
47309;SDS011;33046;52.270;6.832;2023-07-02T06:52:57;14.32;;;6.63;;
47309;SDS011;33046;52.270;6.832;2023-07-02T06:55:04;14.45;;;6.20;;
47309;SDS011;33046;52.270;6.832;2023-07-02T06:57:12;14.75;;;6.75;;
47309;SDS011;33046;52.270;6.832;2023-07-02T06:59:20;12.05;;;5.65;;
47309;SDS011;33046;52.270;6.832;2023-07-02T07:01:28;13.68;;;6.68;;
47309;SDS011;33046;52.270;6.832;2023-07-02T07:03:35;15.23;;;6.18;;
47309;SDS011;33046;52.270;6.832;2023-07-02T07:05:42;11.88;;;6.15;;
47309;SDS011;33046;52.270;6.832;2023-07-02T07:07:49;12.05;;;6.05;;
47309;SDS011;33046;52.270;6.832;2023-07-02T07:09:55;12.93;;;5.65;;
47309;SDS011;33046;52.270;6.832;2023-07-02T07:12:03;15.05;;;6.40;;
47309;SDS011;33046;52.270;6.832;2023-07-02T07:14:10;21.17;;;6.78;;
47309;SDS011;33046;52.270;6.832;2023-07-02T07:16:18;13.63;;;6.03;;
47309;SDS011;33046;52.270;6.832;2023-07-02T07:18:25;15.27;;;5.13;;
47309;SDS011;33046;52.270;6.832;2023-07-02T07:20:33;16.52;;;5.88;;
47309;SDS011;33046;52.270;6.832;2023-07-02T07:22:40;16.60;;;5.65;;
47309;SDS011;33046;52.270;6.832;2023-07-02T07:24:47;10.25;;;5.80;;
47309;SDS011;33046;52.270;6.832;2023-07-02T07:26:54;10.93;;;5.72;;
47309;SDS011;33046;52.270;6.832;2023-07-02T07:29:01;10.65;;;5.15;;
47309;SDS011;33046;52.270;6.832;2023-07-02T07:31:08;10.32;;;5.90;;
47309;SDS011;33046;52.270;6.832;2023-07-02T07:33:16;13.50;;;5.68;;
47309;SDS011;33046;52.270;6.832;2023-07-02T07:35:22;12.52;;;6.05;;
47309;SDS011;33046;52.270;6.832;2023-07-02T07:37:29;16.27;;;7.28;;
47309;SDS011;33046;52.270;6.832;2023-07-02T07:39:36;11.20;;;4.93;;
47309;SDS011;33046;52.270;6.832;2023-07-02T07:41:46;12.10;;;5.97;;
47309;SDS011;33046;52.270;6.832;2023-07-02T07:43:53;9.38;;;4.32;;
47309;SDS011;33046;52.270;6.832;2023-07-02T07:45:59;11.95;;;5.45;;
47309;SDS011;33046;52.270;6.832;2023-07-02T07:48:06;14.60;;;5.00;;
47309;SDS011;33046;52.270;6.832;2023-07-02T07:50:15;9.77;;;4.63;;
47309;SDS011;33046;52.270;6.832;2023-07-02T07:52:22;12.93;;;6.55;;
47309;SDS011;33046;52.270;6.832;2023-07-02T07:54:29;10.88;;;4.82;;
47309;SDS011;33046;52.270;6.832;2023-07-02T07:56:35;11.75;;;5.85;;
47309;SDS011;33046;52.270;6.832;2023-07-02T07:58:42;8.70;;;4.25;;
47309;SDS011;33046;52.270;6.832;2023-07-02T08:00:49;11.70;;;5.10;;
47309;SDS011;33046;52.270;6.832;2023-07-02T08:02:56;12.27;;;4.82;;
47309;SDS011;33046;52.270;6.832;2023-07-02T08:05:03;12.90;;;5.72;;
47309;SDS011;33046;52.270;6.832;2023-07-02T08:07:12;10.60;;;5.05;;
47309;SDS011;33046;52.270;6.832;2023-07-02T08:09:19;13.93;;;4.65;;
47309;SDS011;33046;52.270;6.832;2023-07-02T08:11:26;9.10;;;4.70;;
47309;SDS011;33046;52.270;6.832;2023-07-02T08:13:32;9.77;;;4.28;;
47309;SDS011;33046;52.270;6.832;2023-07-02T08:15:39;11.00;;;5.25;;
47309;SDS011;33046;52.270;6.832;2023-07-02T08:17:46;8.38;;;4.05;;
47309;SDS011;33046;52.270;6.832;2023-07-02T08:19:53;9.98;;;4.22;;
47309;SDS011;33046;52.270;6.832;2023-07-02T08:22:00;8.82;;;4.22;;
47309;SDS011;33046;52.270;6.832;2023-07-02T08:24:08;10.00;;;4.65;;
47309;SDS011;33046;52.270;6.832;2023-07-02T08:26:15;10.75;;;4.53;;
47309;SDS011;33046;52.270;6.832;2023-07-02T08:28:22;12.23;;;4.80;;
47309;SDS011;33046;52.270;6.832;2023-07-02T08:30:29;8.27;;;4.25;;
47309;SDS011;33046;52.270;6.832;2023-07-02T08:32:35;9.48;;;4.45;;
47309;SDS011;33046;52.270;6.832;2023-07-02T08:34:42;7.72;;;4.22;;
47309;SDS011;33046;52.270;6.832;2023-07-02T08:36:49;13.73;;;4.97;;
47309;SDS011;33046;52.270;6.832;2023-07-02T08:38:56;11.07;;;5.03;;
47309;SDS011;33046;52.270;6.832;2023-07-02T08:41:04;10.23;;;4.97;;
47309;SDS011;33046;52.270;6.832;2023-07-02T08:43:11;12.05;;;4.35;;
47309;SDS011;33046;52.270;6.832;2023-07-02T08:45:18;8.80;;;4.35;;
47309;SDS011;33046;52.270;6.832;2023-07-02T08:47:29;10.40;;;4.45;;
47309;SDS011;33046;52.270;6.832;2023-07-02T08:49:35;8.55;;;4.18;;
47309;SDS011;33046;52.270;6.832;2023-07-02T08:51:42;9.88;;;4.22;;
47309;SDS011;33046;52.270;6.832;2023-07-02T08:53:50;10.10;;;4.07;;
47309;SDS011;33046;52.270;6.832;2023-07-02T08:55:57;9.00;;;5.10;;
47309;SDS011;33046;52.270;6.832;2023-07-02T08:58:06;13.02;;;4.47;;
47309;SDS011;33046;52.270;6.832;2023-07-02T09:00:13;11.10;;;5.10;;
47309;SDS011;33046;52.270;6.832;2023-07-02T09:02:29;12.45;;;4.30;;
47309;SDS011;33046;52.270;6.832;2023-07-02T09:04:36;8.63;;;4.18;;
47309;SDS011;33046;52.270;6.832;2023-07-02T09:06:43;8.05;;;3.97;;
47309;SDS011;33046;52.270;6.832;2023-07-02T09:08:50;8.15;;;3.83;;
47309;SDS011;33046;52.270;6.832;2023-07-02T09:11:05;14.85;;;3.83;;
47309;SDS011;33046;52.270;6.832;2023-07-02T09:13:17;10.93;;;4.07;;
47309;SDS011;33046;52.270;6.832;2023-07-02T09:15:23;10.73;;;3.70;;
47309;SDS011;33046;52.270;6.832;2023-07-02T09:17:31;7.47;;;4.45;;
47309;SDS011;33046;52.270;6.832;2023-07-02T09:19:49;7.32;;;3.38;;
47309;SDS011;33046;52.270;6.832;2023-07-02T09:21:57;7.18;;;4.43;;
47309;SDS011;33046;52.270;6.832;2023-07-02T09:24:11;7.43;;;3.60;;
47309;SDS011;33046;52.270;6.832;2023-07-02T09:26:22;8.45;;;4.65;;
47309;SDS011;33046;52.270;6.832;2023-07-02T09:28:30;9.85;;;3.63;;
47309;SDS011;33046;52.270;6.832;2023-07-02T09:30:37;8.35;;;3.85;;
47309;SDS011;33046;52.270;6.832;2023-07-02T09:32:54;8.80;;;3.70;;
47309;SDS011;33046;52.270;6.832;2023-07-02T09:35:12;8.90;;;3.83;;
47309;SDS011;33046;52.270;6.832;2023-07-02T09:37:20;8.50;;;4.22;;
47309;SDS011;33046;52.270;6.832;2023-07-02T09:39:28;8.60;;;3.60;;
47309;SDS011;33046;52.270;6.832;2023-07-02T09:41:35;8.75;;;3.25;;
47309;SDS011;33046;52.270;6.832;2023-07-02T09:43:43;9.93;;;4.05;;
47309;SDS011;33046;52.270;6.832;2023-07-02T09:45:52;8.55;;;3.42;;
47309;SDS011;33046;52.270;6.832;2023-07-02T09:48:00;10.18;;;3.78;;
47309;SDS011;33046;52.270;6.832;2023-07-02T09:50:09;6.40;;;3.88;;
47309;SDS011;33046;52.270;6.832;2023-07-02T09:52:17;8.43;;;3.45;;
47309;SDS011;33046;52.270;6.832;2023-07-02T09:54:24;8.50;;;4.07;;
47309;SDS011;33046;52.270;6.832;2023-07-02T09:56:31;8.80;;;3.55;;
47309;SDS011;33046;52.270;6.832;2023-07-02T09:58:38;7.45;;;3.80;;
47309;SDS011;33046;52.270;6.832;2023-07-02T10:00:47;7.88;;;3.63;;
47309;SDS011;33046;52.270;6.832;2023-07-02T10:02:54;5.75;;;2.90;;
47309;SDS011;33046;52.270;6.832;2023-07-02T10:05:00;7.05;;;3.50;;
47309;SDS011;33046;52.270;6.832;2023-07-02T10:07:07;6.35;;;3.58;;
47309;SDS011;33046;52.270;6.832;2023-07-02T10:09:15;5.28;;;3.25;;
47309;SDS011;33046;52.270;6.832;2023-07-02T10:11:32;6.40;;;3.45;;
47309;SDS011;33046;52.270;6.832;2023-07-02T10:13:40;6.25;;;2.65;;
47309;SDS011;33046;52.270;6.832;2023-07-02T10:15:48;4.85;;;2.55;;
47309;SDS011;33046;52.270;6.832;2023-07-02T10:18:06;6.43;;;3.47;;
47309;SDS011;33046;52.270;6.832;2023-07-02T10:20:13;6.45;;;3.45;;
47309;SDS011;33046;52.270;6.832;2023-07-02T10:22:20;6.70;;;3.10;;
47309;SDS011;33046;52.270;6.832;2023-07-02T10:24:27;6.57;;;2.75;;
47309;SDS011;33046;52.270;6.832;2023-07-02T10:26:34;7.18;;;3.95;;
47309;SDS011;33046;52.270;6.832;2023-07-02T10:28:41;7.70;;;3.40;;
47309;SDS011;33046;52.270;6.832;2023-07-02T10:30:50;5.50;;;2.95;;
47309;SDS011;33046;52.270;6.832;2023-07-02T10:33:06;7.40;;;2.70;;
47309;SDS011;33046;52.270;6.832;2023-07-02T10:35:14;5.57;;;2.55;;
47309;SDS011;33046;52.270;6.832;2023-07-02T10:37:21;7.10;;;3.38;;
47309;SDS011;33046;52.270;6.832;2023-07-02T10:39:28;7.00;;;3.05;;
47309;SDS011;33046;52.270;6.832;2023-07-02T10:41:35;8.32;;;2.78;;
47309;SDS011;33046;52.270;6.832;2023-07-02T10:43:42;6.55;;;3.55;;
47309;SDS011;33046;52.270;6.832;2023-07-02T10:45:50;7.05;;;2.55;;
47309;SDS011;33046;52.270;6.832;2023-07-02T10:47:57;7.35;;;3.03;;
47309;SDS011;33046;52.270;6.832;2023-07-02T10:50:13;7.50;;;3.15;;
47309;SDS011;33046;52.270;6.832;2023-07-02T10:52:21;10.38;;;3.88;;
47309;SDS011;33046;52.270;6.832;2023-07-02T10:54:37;6.50;;;2.72;;
47309;SDS011;33046;52.270;6.832;2023-07-02T10:56:45;7.65;;;2.92;;
47309;SDS011;33046;52.270;6.832;2023-07-02T10:58:52;5.45;;;3.25;;
47309;SDS011;33046;52.270;6.832;2023-07-02T11:01:00;8.13;;;3.38;;
47309;SDS011;33046;52.270;6.832;2023-07-02T11:03:15;5.00;;;2.58;;
47309;SDS011;33046;52.270;6.832;2023-07-02T11:05:23;7.88;;;2.58;;
47309;SDS011;33046;52.270;6.832;2023-07-02T11:07:31;5.70;;;3.03;;
47309;SDS011;33046;52.270;6.832;2023-07-02T11:09:38;6.03;;;2.95;;
47309;SDS011;33046;52.270;6.832;2023-07-02T11:11:49;5.63;;;2.40;;
47309;SDS011;33046;52.270;6.832;2023-07-02T11:13:57;6.82;;;2.60;;
47309;SDS011;33046;52.270;6.832;2023-07-02T11:16:05;5.57;;;2.80;;
47309;SDS011;33046;52.270;6.832;2023-07-02T11:18:22;4.22;;;2.35;;
47309;SDS011;33046;52.270;6.832;2023-07-02T11:20:33;7.22;;;2.40;;
47309;SDS011;33046;52.270;6.832;2023-07-02T11:22:40;5.05;;;3.00;;
47309;SDS011;33046;52.270;6.832;2023-07-02T11:24:47;8.05;;;2.53;;
47309;SDS011;33046;52.270;6.832;2023-07-02T11:26:54;5.40;;;2.22;;
47309;SDS011;33046;52.270;6.832;2023-07-02T11:29:01;5.93;;;2.80;;
47309;SDS011;33046;52.270;6.832;2023-07-02T11:31:09;5.65;;;2.40;;
47309;SDS011;33046;52.270;6.832;2023-07-02T11:33:16;5.28;;;2.60;;
47309;SDS011;33046;52.270;6.832;2023-07-02T11:35:33;5.18;;;2.50;;
47309;SDS011;33046;52.270;6.832;2023-07-02T11:37:40;5.85;;;2.65;;
47309;SDS011;33046;52.270;6.832;2023-07-02T11:39:47;6.93;;;2.65;;
47309;SDS011;33046;52.270;6.832;2023-07-02T11:41:54;4.88;;;2.45;;
47309;SDS011;33046;52.270;6.832;2023-07-02T11:44:01;4.82;;;2.58;;
47309;SDS011;33046;52.270;6.832;2023-07-02T11:46:09;6.30;;;2.67;;
47309;SDS011;33046;52.270;6.832;2023-07-02T11:48:16;5.95;;;2.38;;
47309;SDS011;33046;52.270;6.832;2023-07-02T11:50:23;4.85;;;2.20;;
47309;SDS011;33046;52.270;6.832;2023-07-02T11:52:31;4.82;;;2.30;;
47309;SDS011;33046;52.270;6.832;2023-07-02T11:54:38;6.32;;;2.22;;
47309;SDS011;33046;52.270;6.832;2023-07-02T11:56:45;6.13;;;1.95;;
47309;SDS011;33046;52.270;6.832;2023-07-02T11:58:52;8.05;;;2.97;;
47309;SDS011;33046;52.270;6.832;2023-07-02T12:00:59;7.00;;;1.90;;
47309;SDS011;33046;52.270;6.832;2023-07-02T12:03:07;7.20;;;2.10;;
47309;SDS011;33046;52.270;6.832;2023-07-02T12:05:14;6.47;;;2.45;;
47309;SDS011;33046;52.270;6.832;2023-07-02T12:07:21;3.95;;;1.70;;
47309;SDS011;33046;52.270;6.832;2023-07-02T12:09:28;4.70;;;1.67;;
47309;SDS011;33046;52.270;6.832;2023-07-02T12:11:35;10.40;;;1.98;;
47309;SDS011;33046;52.270;6.832;2023-07-02T12:13:41;3.08;;;1.85;;
47309;SDS011;33046;52.270;6.832;2023-07-02T12:15:48;4.07;;;1.35;;
47309;SDS011;33046;52.270;6.832;2023-07-02T12:17:55;3.15;;;1.38;;
47309;SDS011;33046;52.270;6.832;2023-07-02T12:20:04;4.32;;;1.80;;
47309;SDS011;33046;52.270;6.832;2023-07-02T12:22:12;5.18;;;1.58;;
47309;SDS011;33046;52.270;6.832;2023-07-02T12:24:19;3.15;;;1.40;;
47309;SDS011;33046;52.270;6.832;2023-07-02T12:26:25;3.72;;;1.58;;
47309;SDS011;33046;52.270;6.832;2023-07-02T12:28:32;4.07;;;1.27;;
47309;SDS011;33046;52.270;6.832;2023-07-02T12:30:39;3.20;;;1.48;;
47309;SDS011;33046;52.270;6.832;2023-07-02T12:32:46;7.82;;;1.17;;
47309;SDS011;33046;52.270;6.832;2023-07-02T12:34:53;5.50;;;1.63;;
47309;SDS011;33046;52.270;6.832;2023-07-02T12:37:01;3.55;;;1.30;;
47309;SDS011;33046;52.270;6.832;2023-07-02T12:39:08;2.97;;;1.30;;
47309;SDS011;33046;52.270;6.832;2023-07-02T12:41:16;3.58;;;1.63;;
47309;SDS011;33046;52.270;6.832;2023-07-02T12:43:22;4.28;;;1.60;;
47309;SDS011;33046;52.270;6.832;2023-07-02T12:45:29;2.67;;;1.30;;